CPX119 Details

Departure: Los Angeles International Airport (KLAX)
Arrival: Ted Stevens Anchorage International Airport (PANC)
Route: SUMMR1 SCTRR PYE J143 ENI FOT BOXER B453 MDO WITTI4


Current Weather Information
KLAX 221053Z 03003KT 10SM FEW015 FEW022 11/07 A3014 RMK AO2 SLP204 T01060067
PANC 221053Z 32010KT 10SM OVC065 04/M01 A2948 RMK AO2 RAE49 SLP983 P0000 T00391006